Time;durP1;ratioP1;P1;durP2;ratioP2;P2;SDS_P1;SDS_P2;PMS_P1;PMS_P2;Temp;Humidity;BMP_temperature;BMP_pressure;BME280_temperature;BME280_humidity;BME280_pressure;Samples;Min_cycle;Max_cycle;Signal;HPM_P1;HPM_P2
2023/02/08 00:00:13;;;;;;;92.00;40.40;;;;;;;-3.70;92.15;103312.33;108025;1254;60485;-74
2023/02/08 00:02:40;;;;;;;90.10;40.60;;;;;;;-3.70;91.67;103314.07;108420;1252;60969;-75
2023/02/08 00:05:07;;;;;;;90.20;40.70;;;;;;;-3.70;91.56;103315.27;108164;1251;72772;-75
2023/02/08 00:07:34;;;;;;;86.60;39.00;;;;;;;-3.71;91.41;103309.75;107980;1252;70894;-75
2023/02/08 00:10:04;;;;;;;90.90;40.40;;;;;;;-3.72;91.21;103306.13;108055;1254;72456;-76
2023/02/08 00:12:31;;;;;;;84.90;39.10;;;;;;;-3.72;91.29;103302.15;107921;1253;61700;-75
2023/02/08 00:14:58;;;;;;;88.80;39.60;;;;;;;-3.71;91.31;103300.76;107754;1253;60346;-75
2023/02/08 00:17:25;;;;;;;85.10;39.20;;;;;;;-3.71;91.14;103299.90;107876;1253;74589;-74
2023/02/08 00:19:52;;;;;;;88.30;39.80;;;;;;;-3.74;91.05;103299.05;107675;1253;70379;-74
2023/02/08 00:22:19;;;;;;;83.90;38.10;;;;;;;-3.75;90.94;103295.79;107995;1253;71139;-75
2023/02/08 00:24:46;;;;;;;85.20;39.60;;;;;;;-3.77;90.84;103296.33;107743;1253;61421;-74
2023/02/08 00:27:13;;;;;;;86.80;38.90;;;;;;;-3.79;90.88;103295.14;107879;1252;61122;-74
2023/02/08 00:29:40;;;;;;;80.80;37.90;;;;;;;-3.81;90.80;103296.55;107853;1253;73083;-75
2023/02/08 00:32:07;;;;;;;81.90;37.00;;;;;;;-3.82;90.70;103293.80;107958;1253;70009;-75
2023/02/08 00:34:34;;;;;;;81.20;36.60;;;;;;;-3.85;90.54;103290.02;107962;1252;71276;-74
2023/02/08 00:37:01;;;;;;;82.20;37.50;;;;;;;-3.86;90.61;103289.52;107756;1252;61260;-75
2023/02/08 00:39:28;;;;;;;76.00;36.60;;;;;;;-3.87;90.65;103286.77;108001;1253;61187;-75
2023/02/08 00:41:55;;;;;;;85.30;38.10;;;;;;;-3.90;90.52;103283.16;107562;1256;73135;-75
2023/02/08 00:44:22;;;;;;;83.30;37.40;;;;;;;-3.93;90.36;103285.96;108102;1254;71562;-75
2023/02/08 00:46:49;;;;;;;85.10;40.00;;;;;;;-3.95;90.48;103283.92;107935;1253;70415;-74
2023/02/08 00:49:16;;;;;;;85.00;40.20;;;;;;;-3.98;90.56;103290.17;107849;1251;61203;-75
2023/02/08 00:51:43;;;;;;;88.20;38.90;;;;;;;-3.99;90.49;103293.14;107579;1254;61137;-75
2023/02/08 00:54:13;;;;;;;85.80;38.40;;;;;;;-4.01;90.39;103292.63;107801;1253;73731;-75
2023/02/08 00:56:40;;;;;;;81.40;38.50;;;;;;;-4.03;90.52;103290.58;108101;1254;71092;-76
2023/02/08 00:59:08;;;;;;;81.40;36.90;;;;;;;-4.06;90.17;103294.41;107921;1252;72975;-75
2023/02/08 01:01:35;;;;;;;80.30;36.90;;;;;;;-4.12;90.23;103289.11;107559;1254;61337;-74
2023/02/08 01:04:03;;;;;;;85.20;38.30;;;;;;;-4.17;90.13;103299.19;108067;1252;60138;-74
2023/02/08 01:06:30;;;;;;;81.10;38.20;;;;;;;-4.24;90.25;103297.18;107974;1253;73128;-75
2023/02/08 01:08:58;;;;;;;83.20;37.40;;;;;;;-4.28;90.38;103300.34;108311;1251;69616;-76
2023/02/08 01:11:25;;;;;;;79.30;37.20;;;;;;;-4.33;90.65;103299.02;108616;1253;72557;-74
2023/02/08 01:13:54;;;;;;;81.50;38.30;;;;;;;-4.37;90.72;103305.60;109194;1254;62076;-74
2023/02/08 01:16:24;;;;;;;81.70;36.40;;;;;;;-4.40;90.78;103309.78;109235;1251;59017;-74
2023/02/08 01:18:54;;;;;;;82.00;36.70;;;;;;;-4.45;90.91;103312.59;109161;1253;75323;-74
2023/02/08 01:21:27;;;;;;;75.90;35.30;;;;;;;-4.48;90.85;103310.88;108909;1253;70032;-74
2023/02/08 01:23:55;;;;;;;78.80;35.90;;;;;;;-4.51;90.91;103306.75;108670;1251;72674;-74
2023/02/08 01:26:23;;;;;;;78.80;36.30;;;;;;;-4.51;91.18;103304.34;108541;1253;63170;-75
2023/02/08 01:28:51;;;;;;;77.60;34.90;;;;;;;-4.49;91.34;103301.56;107537;1252;61161;-75
2023/02/08 01:31:22;;;;;;;78.90;35.20;;;;;;;-4.49;91.36;103292.25;107476;1251;75067;-75
2023/02/08 01:33:49;;;;;;;76.80;34.90;;;;;;;-4.48;91.51;103291.70;107871;1253;70422;-75
2023/02/08 01:36:17;;;;;;;74.50;34.20;;;;;;;-4.46;91.64;103288.23;108739;1252;73772;-75
2023/02/08 01:38:44;;;;;;;79.40;34.70;;;;;;;-4.44;91.72;103290.98;108762;1252;61837;-74
2023/02/08 01:41:24;;;;;;;78.30;35.00;;;;;;;-4.42;92.03;103291.66;108618;1252;60478;-75
2023/02/08 01:44:07;;;;;;;81.10;36.70;;;;;;;-4.40;92.11;103287.66;108477;1253;73450;-73
2023/02/08 01:46:38;;;;;;;82.90;36.70;;;;;;;-4.39;91.96;103286.28;107972;1252;71182;-75
2023/02/08 01:49:31;;;;;;;79.10;35.70;;;;;;;-4.38;91.93;103288.68;107854;1253;71523;-74
2023/02/08 01:52:16;;;;;;;75.80;34.60;;;;;;;-4.35;91.99;103289.86;107892;1253;61366;-74
2023/02/08 01:54:48;;;;;;;74.30;34.70;;;;;;;-4.34;91.90;103287.27;107435;1257;61288;-75
2023/02/08 01:57:15;;;;;;;73.80;34.50;;;;;;;-4.34;91.74;103285.02;107962;1253;73993;-74
2023/02/08 01:59:48;;;;;;;75.20;35.60;;;;;;;-4.36;91.56;103275.55;107818;1252;70928;-75
2023/02/08 02:02:18;;;;;;;75.10;34.50;;;;;;;-4.37;91.50;103274.86;107987;1253;71529;-75
2023/02/08 02:04:46;;;;;;;74.10;33.90;;;;;;;-4.39;91.38;103273.84;107633;1254;61801;-76
2023/02/08 02:07:14;;;;;;;70.70;32.60;;;;;;;-4.40;91.48;103270.40;107917;1253;60312;-74
2023/02/08 02:09:52;;;;;;;76.10;35.30;;;;;;;-4.41;91.66;103266.43;107933;1252;73340;-74
2023/02/08 02:12:20;;;;;;;78.00;34.50;;;;;;;-4.43;91.67;103267.48;107908;1256;71001;-74
2023/02/08 02:14:47;;;;;;;71.00;32.40;;;;;;;-4.44;91.67;103269.06;108085;1253;71284;-74
2023/02/08 02:17:17;;;;;;;71.50;33.10;;;;;;;-4.44;91.79;103263.69;107825;1254;61990;-75
2023/02/08 02:20:01;;;;;;;69.90;32.10;;;;;;;-4.43;92.04;103263.52;107811;1253;59171;-75
2023/02/08 02:22:30;;;;;;;74.10;32.70;;;;;;;-4.43;91.88;103258.84;107817;1253;74154;-75
2023/02/08 02:25:33;;;;;;;69.60;31.90;;;;;;;-4.42;91.80;103257.63;107859;1253;71229;-74
2023/02/08 02:28:27;;;;;;;73.20;33.90;;;;;;;-4.41;92.12;103261.94;107786;1254;71156;-74
2023/02/08 02:31:26;;;;;;;69.50;33.00;;;;;;;-4.39;92.08;103261.58;107680;1253;62817;-75
2023/02/08 02:34:01;;;;;;;77.20;33.80;;;;;;;-4.37;92.09;103258.79;107718;1252;60336;-76
2023/02/08 02:36:38;;;;;;;71.40;33.90;;;;;;;-4.37;91.86;103253.60;107845;1253;75374;-74
2023/02/08 02:39:19;;;;;;;71.40;33.70;;;;;;;-4.38;91.68;103254.65;108229;1253;70958;-74
2023/02/08 02:44:54;;;;;;;68.70;32.70;;;;;;;-4.39;91.68;103250.69;108419;1253;62877;-74
2023/02/08 02:47:37;;;;;;;66.70;31.60;;;;;;;-4.39;91.64;103247.76;108389;1253;59830;-74
2023/02/08 02:50:17;;;;;;;65.90;31.50;;;;;;;-4.40;91.56;103243.95;108252;1251;76199;-75
2023/02/08 02:53:05;;;;;;;64.80;30.30;;;;;;;-4.43;91.71;103246.92;108108;1253;70895;-74
2023/02/08 02:55:35;;;;;;;59.30;28.60;;;;;;;-4.45;92.21;103246.09;108026;1253;71995;-74
2023/02/08 02:58:03;;;;;;;68.50;31.60;;;;;;;-4.44;92.94;103250.21;108105;1253;60599;-75
2023/02/08 03:00:32;;;;;;;62.70;30.30;;;;;;;-4.41;93.13;103252.79;107825;1254;60381;-75
2023/02/08 03:02:59;;;;;;;61.50;30.00;;;;;;;-4.39;92.97;103251.20;107811;1252;73794;-75
2023/02/08 03:05:28;;;;;;;64.90;31.90;;;;;;;-4.37;93.23;103254.98;107919;1251;70410;-76
2023/02/08 03:08:13;;;;;;;62.80;30.60;;;;;;;-4.35;93.21;103252.89;107955;1254;73734;-75
2023/02/08 03:10:55;;;;;;;64.00;30.80;;;;;;;-4.32;93.42;103251.84;107905;1254;61785;-75
2023/02/08 03:13:32;;;;;;;64.40;30.30;;;;;;;-4.30;93.27;103243.52;108139;1251;61359;-74
2023/02/08 03:16:10;;;;;;;63.30;29.50;;;;;;;-4.27;93.16;103240.73;108130;1253;75538;-75
2023/02/08 03:18:59;;;;;;;66.50;30.80;;;;;;;-4.26;93.28;103242.44;107920;1256;69709;-75
2023/02/08 03:21:57;;;;;;;59.80;28.90;;;;;;;-4.23;93.07;103241.55;108187;1253;72502;-74
2023/02/08 03:24:36;;;;;;;59.70;29.60;;;;;;;-4.22;92.76;103235.99;107757;1256;61413;-75
2023/02/08 03:27:34;;;;;;;61.20;30.30;;;;;;;-4.19;92.81;103240.80;108252;1253;61125;-75
2023/02/08 03:30:23;;;;;;;58.20;27.70;;;;;;;-4.17;92.82;103241.82;107933;1253;73282;-75
2023/02/08 03:33:01;;;;;;;58.30;28.20;;;;;;;-4.15;92.68;103242.48;108223;1253;71031;-74
2023/02/08 03:35:36;;;;;;;54.80;27.50;;;;;;;-4.13;92.42;103243.16;107930;1253;74179;-75
2023/02/08 03:38:08;;;;;;;59.00;27.60;;;;;;;-4.12;92.28;103243.66;107920;1251;62298;-74
2023/02/08 03:40:42;;;;;;;52.10;27.70;;;;;;;-4.11;92.14;103246.06;107462;1253;60483;-75
2023/02/08 03:43:15;;;;;;;60.60;28.40;;;;;;;-4.09;91.71;103240.17;108239;1253;74248;-75
2023/02/08 03:45:49;;;;;;;56.30;27.50;;;;;;;-4.08;91.63;103239.83;108015;1252;71946;-75
2023/02/08 03:48:18;;;;;;;54.10;27.30;;;;;;;-4.08;91.34;103236.55;108127;1253;71222;-74
2023/02/08 03:50:49;;;;;;;53.70;26.50;;;;;;;-4.07;91.19;103237.57;108377;1254;61339;-75
2023/02/08 03:53:20;;;;;;;51.60;25.50;;;;;;;-4.08;90.91;103240.34;107811;1252;60028;-74
2023/02/08 03:55:51;;;;;;;50.90;26.60;;;;;;;-4.12;90.76;103236.76;107911;1253;74483;-76
2023/02/08 03:58:25;;;;;;;55.00;27.50;;;;;;;-4.15;90.62;103238.34;108339;1254;71423;-75
2023/02/08 04:00:57;;;;;;;54.70;26.40;;;;;;;-4.14;90.55;103235.73;108140;1251;71121;-75
2023/02/08 04:03:27;;;;;;;54.40;27.00;;;;;;;-4.14;90.25;103235.05;108039;1253;60579;-75
2023/02/08 04:05:54;;;;;;;53.10;26.20;;;;;;;-4.16;90.00;103238.87;108025;1254;61273;-75
2023/02/08 04:08:21;;;;;;;55.60;26.50;;;;;;;-4.19;89.82;103241.48;108357;1253;73599;-75
2023/02/08 04:10:49;;;;;;;55.90;26.90;;;;;;;-4.23;89.69;103243.62;108232;1252;71301;-74
2023/02/08 04:13:15;;;;;;;54.40;26.40;;;;;;;-4.27;89.53;103240.20;108052;1253;71629;-74
2023/02/08 04:15:43;;;;;;;54.60;27.60;;;;;;;-4.32;89.40;103237.13;108324;1254;61157;-74
2023/02/08 04:18:10;;;;;;;57.20;26.80;;;;;;;-4.34;89.34;103241.83;108007;1257;61355;-75
2023/02/08 04:20:37;;;;;;;55.70;26.90;;;;;;;-4.36;89.48;103247.38;108331;1254;73776;-74
2023/02/08 04:23:05;;;;;;;52.30;25.80;;;;;;;-4.39;89.33;103248.62;107748;1251;69739;-74
2023/02/08 04:25:32;;;;;;;57.20;27.40;;;;;;;-4.43;89.31;103247.27;108205;1254;70160;-76
2023/02/08 04:27:59;;;;;;;57.60;26.50;;;;;;;-4.46;89.27;103247.48;107759;1254;61761;-74
2023/02/08 04:30:26;;;;;;;54.60;26.80;;;;;;;-4.50;89.20;103250.96;108216;1253;61938;-74
2023/02/08 04:32:53;;;;;;;55.10;26.60;;;;;;;-4.50;89.29;103260.30;108039;1252;73288;-74
2023/02/08 04:35:21;;;;;;;57.00;26.30;;;;;;;-4.52;89.37;103260.31;108064;1253;69334;-74
2023/02/08 04:37:48;;;;;;;53.60;26.90;;;;;;;-4.56;89.22;103263.30;107909;1253;72492;-76
2023/02/08 04:40:15;;;;;;;53.90;26.40;;;;;;;-4.60;88.99;103264.70;108014;1257;62566;-76
2023/02/08 04:42:42;;;;;;;54.00;26.60;;;;;;;-4.63;88.98;103262.84;108329;1254;61670;-75
2023/02/08 04:45:09;;;;;;;58.50;28.10;;;;;;;-4.68;88.93;103256.30;107849;1253;74717;-74
2023/02/08 04:47:36;;;;;;;57.40;28.10;;;;;;;-4.73;88.66;103254.63;108158;1252;71064;-75
2023/02/08 04:50:03;;;;;;;55.50;27.30;;;;;;;-4.77;88.93;103254.48;107891;1254;72990;-75
2023/02/08 04:52:30;;;;;;;57.10;28.90;;;;;;;-4.77;88.89;103255.88;108114;1254;61256;-76
2023/02/08 04:54:57;;;;;;;60.90;29.00;;;;;;;-4.79;89.01;103256.23;108095;1253;59755;-76
2023/02/08 04:57:24;;;;;;;61.20;29.80;;;;;;;-4.80;88.87;103258.83;107953;1254;72512;-75
2023/02/08 04:59:51;;;;;;;63.60;29.30;;;;;;;-4.83;88.82;103259.21;107859;1253;69730;-75
2023/02/08 05:02:18;;;;;;;60.50;29.40;;;;;;;-4.87;88.73;103264.25;108757;1254;71897;-74
2023/02/08 05:04:45;;;;;;;61.40;29.30;;;;;;;-4.94;88.88;103269.30;107699;1253;62081;-73
2023/02/08 05:07:12;;;;;;;57.60;28.70;;;;;;;-4.99;89.02;103272.27;107474;1254;61108;-75
2023/02/08 05:09:40;;;;;;;60.00;27.90;;;;;;;-5.04;88.99;103277.48;107389;1254;75694;-74
2023/02/08 05:12:07;;;;;;;61.00;28.90;;;;;;;-5.07;89.37;103278.20;107247;1253;70842;-75
2023/02/08 05:14:34;;;;;;;58.20;28.70;;;;;;;-5.11;89.49;103278.73;107449;1253;71206;-73
2023/02/08 05:17:01;;;;;;;61.70;29.40;;;;;;;-5.15;89.73;103277.55;107533;1253;60784;-75
2023/02/08 05:19:28;;;;;;;55.50;27.90;;;;;;;-5.17;90.01;103275.14;107677;1254;61240;-74
2023/02/08 05:21:54;;;;;;;61.50;28.70;;;;;;;-5.17;90.42;103274.29;107244;1256;74737;-75
2023/02/08 05:24:25;;;;;;;63.40;30.80;;;;;;;-5.15;90.59;103273.92;107470;1253;69664;-73
2023/02/08 05:26:51;;;;;;;65.50;30.50;;;;;;;-5.13;90.47;103272.55;107272;1252;73211;-75
2023/02/08 05:29:18;;;;;;;61.70;29.10;;;;;;;-5.10;90.52;103272.17;107313;1252;61286;-74
2023/02/08 05:31:45;;;;;;;61.60;29.90;;;;;;;-5.08;90.38;103268.37;107176;1253;61590;-74
2023/02/08 05:34:13;;;;;;;69.20;29.90;;;;;;;-5.07;90.43;103268.00;107618;1256;72558;-74
2023/02/08 05:36:40;;;;;;;62.20;30.20;;;;;;;-5.06;90.49;103268.86;107677;1254;70904;-74
2023/02/08 05:39:07;;;;;;;64.60;30.30;;;;;;;-5.07;90.74;103266.45;107387;1254;72439;-77
2023/02/08 05:41:34;;;;;;;64.20;30.00;;;;;;;-5.08;90.69;103273.19;107560;1253;61906;-77
2023/02/08 05:44:02;;;;;;;61.10;29.70;;;;;;;-5.07;91.08;103274.92;107355;1254;61769;-76
2023/02/08 05:46:28;;;;;;;72.80;32.50;;;;;;;-5.06;91.10;103274.04;107512;1254;73168;-74
2023/02/08 05:48:55;;;;;;;69.40;32.30;;;;;;;-5.05;91.44;103273.52;107597;1252;69629;-74
2023/02/08 05:51:22;;;;;;;67.40;33.30;;;;;;;-5.04;91.29;103278.16;107866;1253;72082;-75
2023/02/08 05:53:49;;;;;;;73.50;33.10;;;;;;;-5.03;91.28;103278.50;107193;1252;62080;-74
2023/02/08 05:56:16;;;;;;;70.00;32.00;;;;;;;-5.01;91.29;103279.69;107186;1258;59123;-74
2023/02/08 05:58:43;;;;;;;71.50;32.00;;;;;;;-4.99;91.19;103277.96;107348;1252;72217;-74
2023/02/08 06:01:12;;;;;;;69.50;33.70;;;;;;;-4.98;91.13;103276.05;107401;1256;72990;-76
2023/02/08 06:03:39;;;;;;;81.10;37.90;;;;;;;-4.99;91.09;103279.68;107268;1253;72976;-75
2023/02/08 06:06:09;;;;;;;67.00;34.80;;;;;;;-5.02;90.88;103277.98;107206;1254;61699;-75
2023/02/08 06:08:37;;;;;;;69.20;33.10;;;;;;;-5.06;90.90;103281.64;107373;1253;61359;-74
2023/02/08 06:11:04;;;;;;;63.40;30.00;;;;;;;-5.11;90.71;103278.04;107594;1253;73501;-75
2023/02/08 06:13:31;;;;;;;67.00;32.40;;;;;;;-5.15;90.72;103277.04;107553;1253;70749;-77
2023/02/08 06:15:58;;;;;;;67.50;30.30;;;;;;;-5.17;90.62;103272.58;107510;1254;73299;-75
2023/02/08 06:18:26;;;;;;;60.70;30.00;;;;;;;-5.19;90.71;103271.19;107638;1254;62579;-74
2023/02/08 06:20:53;;;;;;;67.10;30.40;;;;;;;-5.19;90.77;103276.38;107638;1252;61336;-75
2023/02/08 06:23:21;;;;;;;67.00;30.60;;;;;;;-5.20;90.85;103282.59;107372;1257;74988;-75
2023/02/08 06:25:48;;;;;;;66.70;30.80;;;;;;;-5.22;91.03;103286.39;107390;1254;71222;-77
2023/02/08 06:28:15;;;;;;;70.30;32.70;;;;;;;-5.22;91.26;103287.95;107350;1253;72462;-74
2023/02/08 06:30:42;;;;;;;65.70;32.30;;;;;;;-5.22;91.57;103284.50;108078;1253;61125;-73
2023/02/08 06:33:09;;;;;;;64.80;30.70;;;;;;;-5.21;91.71;103285.34;107569;1253;61116;-75
2023/02/08 06:35:37;;;;;;;69.50;32.80;;;;;;;-5.19;91.99;103287.41;107379;1253;73742;-75
2023/02/08 06:38:04;;;;;;;65.70;31.50;;;;;;;-5.19;92.00;103287.41;107431;1253;71627;-76
2023/02/08 06:40:31;;;;;;;73.00;31.70;;;;;;;-5.19;91.96;103288.78;107655;1253;72761;-74
2023/02/08 06:43:00;;;;;;;66.50;31.20;;;;;;;-5.18;91.97;103289.48;107475;1254;60514;-74
2023/02/08 06:45:27;;;;;;;70.30;31.50;;;;;;;-5.19;92.12;103288.61;107603;1253;61058;-74
2023/02/08 06:47:55;;;;;;;71.00;31.30;;;;;;;-5.18;92.32;103288.10;107431;1254;73544;-76
2023/02/08 06:50:29;;;;;;;72.30;32.10;;;;;;;-5.17;92.26;103289.11;107699;1254;69754;-74
2023/02/08 06:52:56;;;;;;;66.80;32.50;;;;;;;-5.15;92.11;103285.66;107480;1254;73550;-77
2023/02/08 06:55:23;;;;;;;68.60;31.90;;;;;;;-5.14;92.11;103285.48;107441;1253;61699;-74
2023/02/08 06:57:54;;;;;;;74.10;33.80;;;;;;;-5.13;92.02;103287.73;107296;1254;61234;-76
2023/02/08 07:00:21;;;;;;;65.90;32.40;;;;;;;-5.12;92.23;103288.75;107525;1254;74175;-75
2023/02/08 07:02:50;;;;;;;71.90;32.60;;;;;;;-5.09;92.13;103295.63;107470;1252;69718;-74
2023/02/08 07:05:17;;;;;;;69.10;32.90;;;;;;;-5.05;92.18;103296.30;108091;1252;74127;-74
2023/02/08 07:07:44;;;;;;;69.20;33.20;;;;;;;-5.03;92.20;103294.21;107548;1254;61126;-75
2023/02/08 07:10:11;;;;;;;76.80;33.50;;;;;;;-5.00;92.20;103291.43;107481;1256;61349;-74
2023/02/08 07:12:38;;;;;;;72.70;33.80;;;;;;;-4.99;92.07;103289.17;107004;1254;73426;-75
2023/02/08 07:15:05;;;;;;;72.70;35.30;;;;;;;-4.96;92.16;103286.39;107164;1254;69736;-74
2023/02/08 07:17:32;;;;;;;73.00;32.10;;;;;;;-4.93;92.00;103286.89;107040;1254;71201;-77
2023/02/08 07:19:58;;;;;;;67.20;31.40;;;;;;;-4.90;91.90;103284.80;107307;1254;61726;-75
2023/02/08 07:22:25;;;;;;;68.00;32.30;;;;;;;-4.85;91.80;103287.52;107253;1253;61449;-74
2023/02/08 07:24:52;;;;;;;72.80;32.70;;;;;;;-4.79;91.76;103294.38;107700;1256;74812;-73
2023/02/08 07:27:19;;;;;;;71.30;33.50;;;;;;;-4.73;91.84;103292.45;108370;1253;71132;-73
2023/02/08 07:29:46;;;;;;;67.30;32.80;;;;;;;-4.64;91.96;103294.27;107309;1254;72374;-76
2023/02/08 07:32:13;;;;;;;78.20;36.50;;;;;;;-4.56;91.90;103290.05;107565;1256;61363;-74
2023/02/08 07:34:40;;;;;;;64.50;31.90;;;;;;;-4.47;91.87;103282.73;109089;1253;58911;-74
2023/02/08 07:37:07;;;;;;;67.90;32.20;;;;;;;-4.41;91.45;103279.56;109003;1253;74757;-74
2023/02/08 07:39:34;;;;;;;60.50;27.90;;;;;;;-4.40;90.95;103273.85;107692;1257;71808;-74
2023/02/08 07:42:01;;;;;;;57.80;27.10;;;;;;;-4.40;90.69;103268.50;107686;1252;70276;-74
2023/02/08 07:44:28;;;;;;;53.00;27.30;;;;;;;-4.39;90.64;103262.09;107700;1254;61783;-75
2023/02/08 07:46:55;;;;;;;51.10;25.20;;;;;;;-4.36;90.81;103263.27;107269;1252;61272;-74
2023/02/08 07:49:22;;;;;;;54.20;26.90;;;;;;;-4.32;90.79;103260.30;107604;1254;73422;-74
2023/02/08 07:51:49;;;;;;;51.70;25.90;;;;;;;-4.25;90.80;103267.31;107264;1259;69548;-74
2023/02/08 07:54:16;;;;;;;58.30;27.30;;;;;;;-4.20;90.59;103274.34;107209;1256;71881;-74
2023/02/08 07:56:43;;;;;;;53.70;27.50;;;;;;;-4.13;90.48;103273.92;107751;1259;61733;-74
2023/02/08 07:59:10;;;;;;;54.30;28.10;;;;;;;-4.04;90.32;103274.70;107322;1254;61766;-75
2023/02/08 08:01:37;;;;;;;50.30;26.40;;;;;;;-3.95;90.47;103270.44;107487;1254;74007;-73
2023/02/08 08:04:03;;;;;;;52.20;27.80;;;;;;;-3.85;90.41;103272.90;107682;1254;71546;-77
2023/02/08 08:06:30;;;;;;;52.70;26.80;;;;;;;-3.74;90.46;103276.76;107303;1254;71528;-74
2023/02/08 08:08:56;;;;;;;48.30;26.30;;;;;;;-3.64;90.15;103277.86;107480;1254;61708;-75
2023/02/08 08:11:23;;;;;;;52.70;25.60;;;;;;;-3.56;89.97;103274.80;107295;1254;61152;-73
2023/02/08 08:13:50;;;;;;;48.50;26.10;;;;;;;-3.47;89.85;103277.80;107217;1254;73616;-74
2023/02/08 08:16:17;;;;;;;49.00;25.20;;;;;;;-3.39;89.76;103277.85;107116;1257;71384;-73
2023/02/08 08:18:45;;;;;;;51.00;26.60;;;;;;;-3.30;89.61;103270.11;107093;1257;71152;-73
2023/02/08 08:21:12;;;;;;;50.00;24.90;;;;;;;-3.20;89.28;103273.27;107507;1254;61330;-75
2023/02/08 08:23:39;;;;;;;51.50;25.50;;;;;;;-3.13;89.05;103273.50;107170;1254;61232;-73
2023/02/08 08:26:12;;;;;;;48.40;24.50;;;;;;;-3.05;89.09;103275.13;106949;1254;74340;-74
2023/02/08 08:28:40;;;;;;;47.60;24.90;;;;;;;-2.95;89.03;103277.73;107068;1257;71168;-75
2023/02/08 08:31:15;;;;;;;51.80;24.90;;;;;;;-2.85;88.73;103274.30;107139;1256;70510;-74
2023/02/08 08:33:43;;;;;;;44.80;23.20;;;;;;;-2.78;88.50;103271.41;106914;1254;61339;-74
2023/02/08 08:36:10;;;;;;;46.70;23.70;;;;;;;-2.73;87.78;103271.67;107076;1259;61292;-72
2023/02/08 08:38:38;;;;;;;43.40;22.40;;;;;;;-2.67;87.68;103267.24;107584;1253;74821;-73
2023/02/08 08:41:13;;;;;;;45.00;23.30;;;;;;;-2.65;87.09;103263.05;107119;1254;70195;-76
2023/02/08 08:43:40;;;;;;;46.90;23.80;;;;;;;-2.63;86.81;103264.76;107381;1254;72749;-76
2023/02/08 08:46:08;;;;;;;46.60;25.10;;;;;;;-2.57;86.78;103269.50;107253;1254;60835;-74
2023/02/08 08:48:35;;;;;;;46.10;25.20;;;;;;;-2.51;87.15;103268.70;107322;1254;61219;-74
2023/02/08 08:51:02;;;;;;;46.80;24.50;;;;;;;-2.39;87.42;103266.77;107199;1258;73363;-75
2023/02/08 08:53:29;;;;;;;46.10;24.50;;;;;;;-2.31;87.25;103261.23;107176;1259;71182;-76
2023/02/08 08:55:56;;;;;;;48.80;24.90;;;;;;;-2.21;86.80;103257.76;106817;1259;71408;-75
2023/02/08 08:58:22;;;;;;;45.40;24.20;;;;;;;-2.10;86.98;103254.61;107586;1254;61568;-73
2023/02/08 09:00:49;;;;;;;40.90;22.20;;;;;;;-2.00;86.90;103252.68;106967;1259;61160;-74
2023/02/08 09:03:15;;;;;;;41.70;22.70;;;;;;;-1.89;86.84;103255.41;107107;1257;73947;-75
2023/02/08 09:05:42;;;;;;;42.80;23.70;;;;;;;-1.77;86.83;103259.84;107075;1258;71498;-75
2023/02/08 09:08:09;;;;;;;43.00;22.20;;;;;;;-1.70;85.84;103261.60;107305;1256;61241;-73
2023/02/08 09:10:36;;;;;;;41.30;22.30;;;;;;;-1.62;85.63;103262.13;107073;1259;62726;-72
2023/02/08 09:13:02;;;;;;;39.10;20.80;;;;;;;-1.54;85.57;103259.02;107041;1254;61237;-73
2023/02/08 09:15:29;;;;;;;37.20;20.70;;;;;;;-1.48;85.19;103257.14;107409;1254;75498;-70
2023/02/08 09:17:56;;;;;;;39.00;20.50;;;;;;;-1.41;84.70;103252.48;106965;1254;71031;-73
2023/02/08 09:20:23;;;;;;;38.60;20.60;;;;;;;-1.35;84.66;103252.00;107226;1253;72749;-73
2023/02/08 09:22:52;;;;;;;34.70;19.70;;;;;;;-1.25;84.51;103255.25;106926;1257;61375;-72
2023/02/08 09:25:18;;;;;;;36.60;19.30;;;;;;;-1.16;83.92;103257.30;107199;1257;60489;-73
2023/02/08 09:27:45;;;;;;;34.60;19.50;;;;;;;-1.03;84.29;103264.80;107084;1254;74284;-74
2023/02/08 09:30:12;;;;;;;37.00;20.00;;;;;;;-0.88;84.24;103261.48;106960;1257;69955;-72
2023/02/08 09:32:39;;;;;;;35.60;19.50;;;;;;;-0.75;83.68;103261.70;107157;1255;71545;-73
2023/02/08 09:35:06;;;;;;;37.10;19.80;;;;;;;-0.68;82.72;103263.95;107349;1257;61913;-73
2023/02/08 09:37:33;;;;;;;36.80;19.60;;;;;;;-0.62;82.41;103271.61;106881;1254;61807;-73
2023/02/08 09:40:00;;;;;;;34.90;19.30;;;;;;;-0.53;82.33;103276.80;107286;1254;75863;-73
2023/02/08 09:43:03;;;;;;;34.90;18.90;;;;;;;-0.44;82.05;103278.12;107144;1255;71207;-72
2023/02/08 09:45:43;;;;;;;33.70;19.20;;;;;;;-0.32;81.87;103281.11;106855;1254;71265;-74
2023/02/08 09:48:33;;;;;;;33.80;18.90;;;;;;;-0.21;81.42;103273.33;107292;1254;61250;-73
2023/02/08 09:51:09;;;;;;;33.20;18.70;;;;;;;-0.08;81.48;103272.98;107107;1255;61377;-73
2023/02/08 09:53:43;;;;;;;34.30;18.70;;;;;;;0.03;80.84;103271.83;107062;1255;73419;-72
2023/02/08 09:56:18;;;;;;;33.20;18.10;;;;;;;0.14;80.72;103273.60;107532;1255;71514;-72
2023/02/08 09:58:51;;;;;;;31.00;17.90;;;;;;;0.22;79.65;103273.19;107306;1254;72398;-71
2023/02/08 10:01:23;;;;;;;34.20;19.20;;;;;;;0.31;79.70;103273.09;107065;1260;60782;-73
2023/02/08 10:04:05;;;;;;;31.30;18.40;;;;;;;0.45;79.55;103273.92;107109;1254;61253;-74
2023/02/08 10:06:32;;;;;;;30.40;18.10;;;;;;;0.51;78.10;103268.51;107164;1256;73487;-74
2023/02/08 10:09:03;;;;;;;30.00;17.50;;;;;;;0.60;78.38;103270.33;107476;1258;71862;-73
2023/02/08 10:12:03;;;;;;;30.50;17.10;;;;;;;0.69;77.17;103268.33;107220;1254;72349;-75
2023/02/08 10:14:46;;;;;;;28.30;17.50;;;;;;;0.82;77.36;103269.14;107356;1254;61511;-73
2023/02/08 10:17:31;;;;;;;28.10;15.10;;;;;;;0.88;75.10;103260.24;107249;1254;61181;-73
2023/02/08 10:20:17;;;;;;;29.10;16.80;;;;;;;0.89;74.95;103253.04;107109;1257;75653;-72
2023/02/08 10:22:57;;;;;;;29.00;16.50;;;;;;;0.96;75.21;103251.77;107213;1259;71167;-73
2023/02/08 10:25:29;;;;;;;28.20;16.20;;;;;;;1.02;75.06;103246.70;107091;1255;71415;-72
2023/02/08 10:28:02;;;;;;;33.30;17.50;;;;;;;1.14;75.64;103244.23;107049;1259;61196;-73
2023/02/08 10:30:59;;;;;;;27.60;16.60;;;;;;;1.28;75.04;103250.39;107327;1254;61365;-74
2023/02/08 10:33:36;;;;;;;28.30;16.90;;;;;;;1.40;74.76;103247.88;107011;1257;75655;-76
2023/02/08 10:36:13;;;;;;;29.10;16.30;;;;;;;1.49;74.66;103248.80;106984;1259;72420;-74
2023/02/08 10:38:40;;;;;;;27.90;16.90;;;;;;;1.61;74.48;103242.81;107446;1259;73670;-74
2023/02/08 10:41:39;;;;;;;31.40;17.10;;;;;;;1.70;73.96;103239.52;106945;1254;61270;-75
2023/02/08 10:44:24;;;;;;;29.90;17.10;;;;;;;1.76;73.07;103235.13;106916;1258;61330;-75
2023/02/08 10:47:13;;;;;;;29.00;16.60;;;;;;;1.79;72.95;103238.16;107167;1259;405051;-73
2023/02/08 10:49:56;;;;;;;30.10;18.00;;;;;;;1.83;72.81;103239.59;107536;1254;71222;-74
2023/02/08 10:52:23;;;;;;;28.40;16.00;;;;;;;1.96;73.46;103241.05;107208;1257;72394;-75
2023/02/08 10:54:50;;;;;;;28.40;15.70;;;;;;;2.04;72.70;103241.08;107013;1254;61270;-75
2023/02/08 10:57:22;;;;;;;28.40;16.80;;;;;;;2.12;72.63;103235.56;106844;1259;61186;-75
2023/02/08 11:00:00;;;;;;;26.80;15.70;;;;;;;2.22;72.65;103229.61;107091;1263;73545;-74
2023/02/08 11:02:32;;;;;;;26.50;15.60;;;;;;;2.31;72.29;103225.24;106977;1258;70147;-78
2023/02/08 11:05:03;;;;;;;23.20;14.30;;;;;;;2.41;71.54;103221.54;107520;1258;71724;-74
2023/02/08 11:07:31;;;;;;;24.30;14.20;;;;;;;2.53;69.81;103224.04;107180;1254;60676;-74
2023/02/08 11:10:19;;;;;;;23.30;13.80;;;;;;;2.62;68.77;103222.47;106998;1256;61609;-74
2023/02/08 11:13:02;;;;;;;19.50;12.60;;;;;;;2.70;66.94;103223.02;107061;1260;74018;-73
2023/02/08 11:15:39;;;;;;;24.00;13.10;;;;;;;2.78;67.18;103214.82;107273;1257;69979;-73
2023/02/08 11:18:14;;;;;;;23.20;13.60;;;;;;;2.83;65.95;103215.32;106976;1254;72603;-74
2023/02/08 11:20:40;;;;;;;23.40;13.50;;;;;;;2.93;66.38;103211.61;107186;1254;61239;-73